Littleport, United Kingdom
Current Conditions -  °F | °C
As of 4:03 PM on Tuesday 21 Oct 2014 (Local Time) from EGUN Reporting Station
Broken Clouds Broken Clouds  
Wind Chill: 50°   Ceiling: 7500
Heat Index: 50°   Visibility: 6mi
Dew Point: 48°   Wind: 23mph
Humidity: 94%   Direction: 300°WNW
Pressure: 29.7"   Gusts: 31mph
Location:  52.46°N, 0.31°E
Report Text: EGUN 211503Z AUTO 30020G27KT 9999 FEW040 SCT049 SCT060 BKN075 BKN095 10/09 A2970 RMK AO2 $
Loading
Personal Weather Stations






























Interactive Weather Map
Tropical Storm Tracking
New forecast layout! Learn more

10-Day Weather Forecast

Advertisements
Track Severe Weather on mobile